createdAt,value
2018-10-12T00:04:07.691Z,17.50
2018-10-12T00:09:12.134Z,17.60
2018-10-12T00:14:16.353Z,17.60
2018-10-12T00:19:20.655Z,17.60
2018-10-12T00:24:24.997Z,17.70
2018-10-12T00:29:29.281Z,17.60
2018-10-12T00:34:33.592Z,17.60
2018-10-12T00:39:37.980Z,17.60
2018-10-12T00:44:42.128Z,17.60
2018-10-12T00:49:46.351Z,17.60
2018-10-12T00:54:50.724Z,17.70
2018-10-12T00:59:54.961Z,17.70
2018-10-12T01:04:59.160Z,17.70
2018-10-12T01:10:03.503Z,17.60
2018-10-12T01:15:07.756Z,17.60
2018-10-12T01:20:12.101Z,17.70
2018-10-12T01:25:16.722Z,17.70
2018-10-12T01:30:21.227Z,17.70
2018-10-12T01:35:25.472Z,17.70
2018-10-12T01:40:30.541Z,17.70
2018-10-12T01:45:34.763Z,17.70
2018-10-12T01:50:39.013Z,17.70
2018-10-12T01:55:43.205Z,17.70
2018-10-12T02:00:47.585Z,17.60
2018-10-12T02:05:51.988Z,17.60
2018-10-12T02:10:56.221Z,17.60
2018-10-12T02:16:00.487Z,17.60
2018-10-12T02:21:04.773Z,17.60
2018-10-12T02:26:08.905Z,17.60
2018-10-12T02:31:13.060Z,17.50
2018-10-12T02:36:17.237Z,17.60
2018-10-12T02:41:21.719Z,17.50
2018-10-12T02:46:25.867Z,17.60
2018-10-12T02:51:30.393Z,17.60
2018-10-12T02:56:34.746Z,17.50
2018-10-12T03:01:38.924Z,17.50
2018-10-12T03:06:43.233Z,17.50
2018-10-12T03:11:47.630Z,17.40
2018-10-12T03:16:51.871Z,17.40
2018-10-12T03:21:56.156Z,17.40
2018-10-12T03:27:00.277Z,17.40
2018-10-12T03:32:04.535Z,17.40
2018-10-12T03:37:08.788Z,17.30
2018-10-12T03:42:13.025Z,17.40
2018-10-12T03:47:17.294Z,17.40
2018-10-12T03:52:21.478Z,17.40
2018-10-12T03:57:25.697Z,17.40
2018-10-12T04:02:29.950Z,17.20
2018-10-12T04:07:34.179Z,17.10
2018-10-12T04:12:38.714Z,17.10
2018-10-12T04:17:42.833Z,17.00
2018-10-12T04:22:47.245Z,17.00
2018-10-12T04:27:51.419Z,17.00
2018-10-12T04:32:55.671Z,16.90
2018-10-12T04:37:59.916Z,17.00
2018-10-12T04:43:04.253Z,16.90
2018-10-12T04:48:08.435Z,16.90
2018-10-12T04:53:12.660Z,16.90
2018-10-12T04:58:16.913Z,16.90
2018-10-12T05:03:21.155Z,16.80
2018-10-12T05:08:25.488Z,16.80
2018-10-12T05:13:29.921Z,16.80
2018-10-12T05:18:34.174Z,16.80
2018-10-12T05:23:38.481Z,16.80
2018-10-12T05:28:42.749Z,16.80
2018-10-12T05:33:47.089Z,16.70
2018-10-12T05:38:51.269Z,16.70
2018-10-12T05:43:55.599Z,16.70
2018-10-12T05:49:10.854Z,16.70
2018-10-12T05:54:15.487Z,16.70
2018-10-12T05:59:19.775Z,16.70
2018-10-12T06:04:23.985Z,16.70
2018-10-12T06:09:28.271Z,16.80
2018-10-12T06:14:32.455Z,16.80
2018-10-12T06:19:36.657Z,16.90
2018-10-12T06:24:40.858Z,16.90
2018-10-12T06:29:45.097Z,16.90
2018-10-12T06:34:49.279Z,17.00
2018-10-12T06:39:53.507Z,17.00
2018-10-12T06:44:57.681Z,17.10
2018-10-12T06:50:02.191Z,17.10
2018-10-12T06:55:06.996Z,17.20
2018-10-12T07:00:11.317Z,17.20
2018-10-12T07:05:15.591Z,17.30
2018-10-12T07:10:19.883Z,17.40
2018-10-12T07:15:24.088Z,17.40
2018-10-12T07:20:28.464Z,17.50
2018-10-12T07:25:32.735Z,17.60
2018-10-12T07:30:38.028Z,17.70
2018-10-12T07:35:42.226Z,17.70
2018-10-12T07:40:46.475Z,17.80
2018-10-12T07:45:51.072Z,17.80
2018-10-12T07:50:55.324Z,17.90
2018-10-12T07:55:59.519Z,18.10
2018-10-12T08:01:03.777Z,18.00
2018-10-12T08:06:08.053Z,18.20
2018-10-12T08:11:12.227Z,18.30
2018-10-12T08:16:16.473Z,18.30
2018-10-12T08:21:20.758Z,18.30
2018-10-12T08:26:25.152Z,18.50
2018-10-12T08:31:29.387Z,18.50
2018-10-12T08:36:33.661Z,18.60
2018-10-12T08:41:37.983Z,18.70
2018-10-12T08:46:42.232Z,18.90
2018-10-12T08:51:46.385Z,18.90
2018-10-12T08:56:50.602Z,19.00
2018-10-12T09:01:54.857Z,19.10
2018-10-12T09:06:59.117Z,19.20
2018-10-12T09:12:03.369Z,19.40
2018-10-12T09:17:07.543Z,19.70
2018-10-12T09:22:11.755Z,19.80
2018-10-12T09:27:16.052Z,20.30
2018-10-12T09:32:20.163Z,20.70
2018-10-12T09:37:25.856Z,20.90
2018-10-12T09:42:30.153Z,21.50
2018-10-12T09:47:34.416Z,21.60
2018-10-12T09:52:38.596Z,22.10
2018-10-12T09:57:42.805Z,22.20
2018-10-12T10:02:52.387Z,22.00
2018-10-12T10:07:56.915Z,22.90
2018-10-12T10:13:01.185Z,22.90
2018-10-12T10:18:05.457Z,23.20
2018-10-12T10:23:09.642Z,23.50
2018-10-12T10:28:13.999Z,23.20
2018-10-12T10:33:18.190Z,23.60
2018-10-12T10:38:22.473Z,24.40
2018-10-12T10:43:26.693Z,24.30
2018-10-12T10:48:31.122Z,24.70
2018-10-12T10:53:35.414Z,25.30
2018-10-12T10:58:39.649Z,25.40
2018-10-12T11:03:43.834Z,25.10
2018-10-12T11:08:47.996Z,25.40
2018-10-12T11:13:52.185Z,25.70
2018-10-12T11:18:56.420Z,25.60
2018-10-12T11:24:00.607Z,25.90
2018-10-12T11:29:04.945Z,25.10
2018-10-12T11:34:09.106Z,25.70
2018-10-12T11:39:15.155Z,25.80
2018-10-12T11:44:19.584Z,26.00
2018-10-12T11:49:23.732Z,25.70
2018-10-12T11:54:27.902Z,25.60
2018-10-12T11:59:32.236Z,25.40
2018-10-12T12:04:36.474Z,25.50
2018-10-12T12:09:40.747Z,25.50
2018-10-12T12:14:44.920Z,25.80
2018-10-12T12:19:49.118Z,25.60
2018-10-12T12:25:00.173Z,26.10
2018-10-12T12:30:05.607Z,25.70
2018-10-12T12:35:09.932Z,26.00
2018-10-12T12:40:14.023Z,26.10
2018-10-12T12:45:18.231Z,26.40
2018-10-12T12:50:22.412Z,26.20
2018-10-12T12:55:26.574Z,26.10
2018-10-12T13:00:30.841Z,26.00
2018-10-12T13:05:35.024Z,26.00
2018-10-12T13:10:39.203Z,26.10
2018-10-12T13:15:43.520Z,26.00
2018-10-12T13:20:47.713Z,26.00
2018-10-12T13:25:51.992Z,26.10
2018-10-12T13:30:56.191Z,25.90
2018-10-12T13:36:00.449Z,25.80
2018-10-12T13:41:04.663Z,25.70
2018-10-12T13:46:08.815Z,25.60
2018-10-12T13:51:13.232Z,25.60
2018-10-12T13:56:17.410Z,25.80
2018-10-12T14:01:21.805Z,25.80
2018-10-12T14:06:26.080Z,25.50
2018-10-12T14:11:30.657Z,25.50
2018-10-12T14:16:34.872Z,25.40
2018-10-12T14:21:39.026Z,25.30
2018-10-12T14:26:43.448Z,25.20
2018-10-12T14:31:47.839Z,25.30
2018-10-12T14:36:52.093Z,25.30
2018-10-12T14:41:56.384Z,25.20
2018-10-12T14:47:00.599Z,25.10
2018-10-12T14:52:04.795Z,25.00
2018-10-12T14:57:14.355Z,25.00
2018-10-12T15:02:19.546Z,25.00
2018-10-12T15:07:23.745Z,25.00
2018-10-12T15:12:27.956Z,24.90
2018-10-12T15:17:32.107Z,24.70
2018-10-12T15:22:36.361Z,24.70
2018-10-12T15:27:41.166Z,24.70
2018-10-12T15:32:45.414Z,24.50
2018-10-12T15:37:49.705Z,24.50
2018-10-12T15:42:53.996Z,24.30
2018-10-12T15:47:58.287Z,24.20
2018-10-12T15:53:02.534Z,24.20
2018-10-12T15:58:06.706Z,24.10
2018-10-12T16:03:10.915Z,24.00
2018-10-12T16:08:15.196Z,23.90
2018-10-12T16:13:19.517Z,23.80
2018-10-12T16:18:23.743Z,23.70
2018-10-12T16:23:28.195Z,23.70
2018-10-12T16:28:32.528Z,23.60
2018-10-12T16:33:36.751Z,23.50
2018-10-12T16:38:41.045Z,23.30
2018-10-12T16:43:45.288Z,23.20
2018-10-12T16:48:50.026Z,23.10
2018-10-12T16:53:54.980Z,23.10
2018-10-12T16:59:00.584Z,23.10
2018-10-12T17:04:04.900Z,23.10
2018-10-12T17:09:09.647Z,22.90
2018-10-12T17:14:14.009Z,22.60
2018-10-12T17:19:19.811Z,22.70
2018-10-12T17:24:24.092Z,22.70
2018-10-12T17:29:28.332Z,22.50
2018-10-12T17:34:32.772Z,22.40
2018-10-12T17:39:37.032Z,22.50
2018-10-12T17:44:41.281Z,22.30
2018-10-12T17:49:45.862Z,22.10
2018-10-12T17:54:50.088Z,22.20
2018-10-12T17:59:54.578Z,22.20
2018-10-12T18:04:58.988Z,22.10
2018-10-12T18:10:04.021Z,22.00
2018-10-12T18:15:10.996Z,21.80
2018-10-12T18:20:15.276Z,22.00
2018-10-12T18:25:19.959Z,22.00
2018-10-12T18:30:25.068Z,21.80
2018-10-12T18:35:29.634Z,21.90
2018-10-12T18:40:33.897Z,21.70
2018-10-12T18:45:38.541Z,21.70
2018-10-12T18:50:42.795Z,21.50
2018-10-12T18:55:48.430Z,21.30
2018-10-12T19:00:52.955Z,21.40
2018-10-12T19:05:59.885Z,21.40
2018-10-12T19:11:04.122Z,21.40
2018-10-12T19:16:08.815Z,21.20
2018-10-12T19:21:13.097Z,21.20
2018-10-12T19:26:18.565Z,21.00
2018-10-12T19:31:22.934Z,21.00
2018-10-12T19:36:27.161Z,21.00
2018-10-12T19:41:31.488Z,20.90
2018-10-12T19:46:35.711Z,21.00
2018-10-12T19:51:40.632Z,21.10
2018-10-12T19:56:45.398Z,21.10
2018-10-12T20:01:51.591Z,21.10
2018-10-12T20:06:56.929Z,21.00
2018-10-12T20:12:01.854Z,21.00
2018-10-12T20:17:06.087Z,21.10
2018-10-12T20:22:11.009Z,21.10
2018-10-12T20:27:15.194Z,20.90
2018-10-12T20:32:19.491Z,20.80
2018-10-12T20:37:23.724Z,20.80
2018-10-12T20:42:27.926Z,20.70
2018-10-12T20:47:32.167Z,20.70
2018-10-12T20:52:36.486Z,20.70
2018-10-12T20:57:47.766Z,20.50
2018-10-12T21:02:51.960Z,20.60
2018-10-12T21:07:56.185Z,20.50
2018-10-12T21:13:00.370Z,20.60
2018-10-12T21:18:04.938Z,20.50
2018-10-12T21:23:09.214Z,20.50
2018-10-12T21:28:13.475Z,20.40
2018-10-12T21:33:17.621Z,20.10
2018-10-12T21:38:21.799Z,19.90
2018-10-12T21:43:26.057Z,20.20
2018-10-12T21:48:30.283Z,20.20
2018-10-12T21:53:34.478Z,19.90
2018-10-12T21:58:38.709Z,19.80
2018-10-12T22:03:42.883Z,19.80
2018-10-12T22:08:52.192Z,19.40
2018-10-12T22:13:56.440Z,19.60
2018-10-12T22:19:00.701Z,19.40
2018-10-12T22:24:05.021Z,19.50
2018-10-12T22:29:09.325Z,19.50
2018-10-12T22:34:14.391Z,19.40
2018-10-12T22:39:18.806Z,19.20
2018-10-12T22:44:22.982Z,19.20
2018-10-12T22:49:27.226Z,19.20
2018-10-12T22:54:31.518Z,19.20
2018-10-12T22:59:35.697Z,19.30
2018-10-12T23:04:39.889Z,19.10
2018-10-12T23:09:44.148Z,19.00
2018-10-12T23:14:48.335Z,19.30
2018-10-12T23:19:52.722Z,19.10
2018-10-12T23:24:56.914Z,18.90
2018-10-12T23:30:01.131Z,19.00
2018-10-12T23:35:05.349Z,19.00
2018-10-12T23:40:09.543Z,18.90
2018-10-12T23:45:13.709Z,19.10
2018-10-12T23:50:17.929Z,18.80
2018-10-12T23:55:22.146Z,18.60
